Time;durP1;ratioP1;P1;durP2;ratioP2;P2;SDS_P1;SDS_P2;PMS_P1;PMS_P2;Temp;Humidity;BMP_temperature;BMP_pressure;BME280_temperature;BME280_humidity;BME280_pressure;Samples;Min_cycle;Max_cycle;Signal;HPM_P1;HPM_P2
2022/04/30 00:02:21;;;;;;;8.20;3.83;;;;;;;-145.68;100.00;63218.00;10527538;28;20249;-59
2022/04/30 00:08:19;;;;;;;5.00;3.63;;;;;;;-145.68;100.00;63218.00;10528288;28;20203;-60
2022/04/30 00:14:18;;;;;;;10.47;3.50;;;;;;;-145.68;100.00;63218.00;10528118;28;20719;-58
2022/04/30 00:20:18;;;;;;;4.43;3.60;;;;;;;-145.68;100.00;63218.00;10528649;28;20266;-60
2022/04/30 00:26:17;;;;;;;5.07;3.60;;;;;;;-145.68;100.00;63218.00;10527886;28;20187;-60
2022/04/30 00:32:16;;;;;;;6.37;4.20;;;;;;;-145.68;100.00;63218.00;10527907;28;20700;-60
2022/04/30 00:38:15;;;;;;;5.63;3.50;;;;;;;-145.68;100.00;63218.00;10528715;28;20222;-61
2022/04/30 00:44:21;;;;;;;7.43;4.43;;;;;;;-145.68;100.00;63218.00;10528108;28;20186;-59
2022/04/30 00:50:21;;;;;;;7.53;4.10;;;;;;;-145.68;100.00;63218.00;10534733;28;20210;-60
2022/04/30 00:56:32;;;;;;;6.40;3.90;;;;;;;-145.68;100.00;63218.00;10535672;28;20242;-59
2022/04/30 01:02:32;;;;;;;9.43;4.23;;;;;;;-145.68;100.00;63218.00;10534348;28;20704;-57
2022/04/30 01:09:06;;;;;;;5.13;3.90;;;;;;;-145.68;100.00;63218.00;10557409;22;20235;-55
2022/04/30 01:15:06;;;;;;;5.50;3.90;;;;;;;-145.68;100.00;63218.00;10542045;28;20218;-54
2022/04/30 01:21:07;;;;;;;7.60;4.50;;;;;;;-145.68;100.00;63218.00;10542218;28;20206;-56
2022/04/30 01:27:07;;;;;;;5.57;3.90;;;;;;;-145.68;100.00;63218.00;10522639;28;20563;-55
2022/04/30 01:39:23;;;;;;;7.07;4.33;;;;;;;-145.68;100.00;63218.00;10540412;28;20215;-56
2022/04/30 01:45:22;;;;;;;5.97;4.63;;;;;;;-145.68;100.00;63218.00;10540442;28;20255;-54
2022/04/30 01:51:21;;;;;;;6.67;3.87;;;;;;;-145.68;100.00;63218.00;10545035;28;20206;-54
2022/04/30 01:57:25;;;;;;;9.87;4.70;;;;;;;-145.68;100.00;63218.00;10541245;28;20221;-54
2022/04/30 02:03:35;;;;;;;10.90;5.23;;;;;;;-145.68;100.00;63218.00;10540288;28;20245;-53
2022/04/30 02:09:34;;;;;;;4.27;3.73;;;;;;;-145.68;100.00;63218.00;10520980;28;20233;-54
2022/04/30 02:15:36;;;;;;;5.50;3.93;;;;;;;-145.68;100.00;63218.00;10539249;28;20321;-54
2022/04/30 02:21:35;;;;;;;6.07;3.87;;;;;;;-145.68;100.00;63218.00;10538578;28;20207;-54
2022/04/30 02:27:38;;;;;;;5.60;3.97;;;;;;;-145.68;100.00;63218.00;10521383;28;20214;-56
2022/04/30 02:33:40;;;;;;;4.67;4.23;;;;;;;-145.68;100.00;63218.00;10539384;28;20199;-58
2022/04/30 02:39:39;;;;;;;6.97;4.60;;;;;;;-145.68;100.00;63218.00;10539447;28;20229;-59
2022/04/30 02:45:39;;;;;;;11.10;4.63;;;;;;;-145.68;100.00;63218.00;10539359;28;20655;-59
2022/04/30 02:51:38;;;;;;;8.60;4.00;;;;;;;-145.68;100.00;63218.00;10539505;28;20684;-58
2022/04/30 02:57:38;;;;;;;8.13;4.33;;;;;;;-145.68;100.00;63218.00;10539096;28;20250;-55
2022/04/30 03:03:36;;;;;;;7.13;4.63;;;;;;;-145.68;100.00;63218.00;10541340;28;20198;-59
2022/04/30 03:09:35;;;;;;;7.60;4.70;;;;;;;-145.68;100.00;63218.00;10579882;28;20242;-53
2022/04/30 03:15:34;;;;;;;9.63;5.10;;;;;;;-145.68;100.00;63218.00;10580070;28;20283;-57
2022/04/30 03:21:44;;;;;;;8.77;4.60;;;;;;;-145.68;100.00;63218.00;10580149;28;20267;-55
2022/04/30 03:27:44;;;;;;;9.43;5.03;;;;;;;-145.68;100.00;63218.00;10579074;28;20258;-56
2022/04/30 03:33:44;;;;;;;8.70;4.73;;;;;;;-145.68;100.00;63218.00;10578532;28;20279;-55
2022/04/30 03:39:43;;;;;;;7.03;4.97;;;;;;;-145.68;100.00;63218.00;10579027;28;20214;-54
2022/04/30 03:45:42;;;;;;;7.83;5.50;;;;;;;-145.68;100.00;63218.00;10579175;28;20190;-53
2022/04/30 03:51:41;;;;;;;6.27;4.87;;;;;;;-145.68;100.00;63218.00;10578374;28;20209;-55
2022/04/30 03:57:40;;;;;;;8.13;5.43;;;;;;;-145.68;100.00;63218.00;10578055;28;20236;-54
2022/04/30 04:03:42;;;;;;;6.53;5.20;;;;;;;-145.68;100.00;63218.00;10578156;28;20210;-53
2022/04/30 04:09:41;;;;;;;8.07;5.23;;;;;;;-145.68;100.00;63218.00;10578158;28;20218;-53
2022/04/30 04:21:57;;;;;;;10.70;5.67;;;;;;;-145.68;100.00;63218.00;10577272;28;20213;-55
2022/04/30 04:27:57;;;;;;;8.67;5.07;;;;;;;-145.68;100.00;63218.00;10577963;28;20214;-54
2022/04/30 04:33:56;;;;;;;12.60;5.53;;;;;;;-145.68;100.00;63218.00;10577760;28;20224;-53
2022/04/30 04:39:55;;;;;;;7.87;5.10;;;;;;;-145.68;100.00;63218.00;10577791;28;20240;-54
2022/04/30 04:45:54;;;;;;;11.00;4.87;;;;;;;-145.68;100.00;63218.00;10577665;28;20182;-53
2022/04/30 04:51:53;;;;;;;10.27;5.47;;;;;;;-145.68;100.00;63218.00;10577533;28;20214;-53
2022/04/30 04:57:52;;;;;;;12.10;5.17;;;;;;;-145.68;100.00;63218.00;10577332;28;20221;-55
2022/04/30 05:03:51;;;;;;;8.50;4.83;;;;;;;-145.68;100.00;63218.00;10577276;28;20201;-56
2022/04/30 05:09:50;;;;;;;6.30;4.53;;;;;;;-145.68;100.00;63218.00;10576991;28;20245;-58
2022/04/30 05:15:49;;;;;;;8.70;4.87;;;;;;;-145.68;100.00;63218.00;10577021;28;20210;-54
2022/04/30 05:21:48;;;;;;;7.70;4.83;;;;;;;-145.68;100.00;63218.00;10577251;28;20983;-57
2022/04/30 05:27:46;;;;;;;8.10;5.07;;;;;;;-145.68;100.00;63218.00;10573555;28;20213;-53
2022/04/30 05:33:45;;;;;;;9.40;5.13;;;;;;;-145.68;100.00;63218.00;10575426;28;20194;-56
2022/04/30 05:39:44;;;;;;;36.27;17.60;;;;;;;-145.68;100.00;63218.00;10579468;28;20230;-57
2022/04/30 05:45:43;;;;;;;15.40;9.83;;;;;;;-145.68;100.00;63218.00;10580753;28;20609;-56
2022/04/30 05:51:42;;;;;;;14.73;9.70;;;;;;;-145.68;100.00;63218.00;10580802;28;20213;-54
2022/04/30 05:57:41;;;;;;;10.67;6.50;;;;;;;-145.68;100.00;63218.00;10580520;28;20229;-58
2022/04/30 06:03:40;;;;;;;8.87;5.77;;;;;;;-145.68;100.00;63218.00;10562513;28;20248;-56
2022/04/30 06:09:39;;;;;;;8.17;5.67;;;;;;;-145.68;100.00;63218.00;10537713;28;20638;-54
2022/04/30 06:15:38;;;;;;;16.83;9.20;;;;;;;-145.68;100.00;63218.00;10549372;28;20238;-54
2022/04/30 06:21:37;;;;;;;10.37;6.37;;;;;;;-145.68;100.00;63218.00;10542774;28;20214;-53
2022/04/30 06:27:36;;;;;;;12.30;6.83;;;;;;;-145.68;100.00;63218.00;10537214;28;20202;-53
2022/04/30 06:33:35;;;;;;;10.30;4.90;;;;;;;-145.68;100.00;63218.00;10536611;28;20736;-58
2022/04/30 06:39:33;;;;;;;14.43;5.03;;;;;;;-145.68;100.00;63218.00;10555965;28;20213;-55
2022/04/30 06:45:32;;;;;;;5.10;4.43;;;;;;;-145.68;100.00;63218.00;10547383;28;20195;-52
2022/04/30 06:51:31;;;;;;;6.23;4.23;;;;;;;-145.68;100.00;63218.00;10536101;28;20219;-53
2022/04/30 06:57:30;;;;;;;6.60;4.37;;;;;;;-145.68;100.00;63218.00;10532407;28;20218;-55
2022/04/30 07:03:29;;;;;;;8.10;4.50;;;;;;;-145.68;100.00;63218.00;10531057;28;20198;-54
2022/04/30 07:09:35;;;;;;;7.47;4.13;;;;;;;-145.68;100.00;63218.00;10529859;28;20227;-59
2022/04/30 07:15:36;;;;;;;8.90;5.60;;;;;;;-145.68;100.00;63218.00;10535295;22;20250;-56
2022/04/30 07:21:36;;;;;;;8.45;5.25;;;;;;;-145.68;100.00;63218.00;10485614;28;20214;-55
2022/04/30 07:27:35;;;;;;;9.57;5.13;;;;;;;-145.68;100.00;63218.00;10463492;28;20223;-57
2022/04/30 07:33:37;;;;;;;7.07;4.57;;;;;;;-145.68;100.00;63218.00;10452758;28;20242;-57
2022/04/30 07:39:36;;;;;;;7.45;5.13;;;;;;;-145.68;100.00;63218.00;10464599;28;20207;-59
2022/04/30 07:45:36;;;;;;;11.15;6.00;;;;;;;-145.68;100.00;63218.00;10448024;28;20227;-52
2022/04/30 07:51:42;;;;;;;9.00;5.82;;;;;;;-145.68;100.00;63218.00;10445746;28;20210;-55
2022/04/30 07:57:40;;;;;;;13.45;6.28;;;;;;;-145.68;100.00;63218.00;10442896;28;20612;-56
2022/04/30 08:03:41;;;;;;;7.63;5.35;;;;;;;-145.68;100.00;63218.00;10445621;28;20289;-57
2022/04/30 08:09:40;;;;;;;7.57;4.85;;;;;;;-145.68;100.00;63218.00;10445278;28;20724;-57
2022/04/30 08:15:43;;;;;;;8.38;5.72;;;;;;;-145.68;100.00;63218.00;10444243;28;20271;-59
2022/04/30 08:21:43;;;;;;;9.43;6.15;;;;;;;-145.68;100.00;63218.00;10444174;28;20196;-57
2022/04/30 08:27:42;;;;;;;12.82;6.50;;;;;;;-145.68;100.00;63218.00;10472589;28;20713;-59
2022/04/30 08:33:42;;;;;;;11.02;7.68;;;;;;;-145.68;100.00;63218.00;10447659;28;20192;-59
2022/04/30 08:39:40;;;;;;;13.73;8.00;;;;;;;-145.68;100.00;63218.00;10447446;28;20598;-56
2022/04/30 08:45:40;;;;;;;12.23;8.68;;;;;;;-145.68;100.00;63218.00;10447624;28;20286;-56
2022/04/30 08:51:41;;;;;;;7.38;5.35;;;;;;;-145.68;100.00;63218.00;10447965;28;20782;-59
2022/04/30 08:57:52;;;;;;;9.63;6.45;;;;;;;-145.68;100.00;63218.00;10446012;28;20270;-61
2022/04/30 09:03:54;;;;;;;7.90;5.72;;;;;;;-145.68;100.00;63218.00;10447361;28;20976;-61
2022/04/30 09:10:00;;;;;;;9.55;7.18;;;;;;;-145.68;100.00;63218.00;10451529;28;20192;-59
2022/04/30 09:15:58;;;;;;;6.75;5.30;;;;;;;-145.68;100.00;63218.00;10454355;28;20781;-59
2022/04/30 09:21:57;;;;;;;7.50;6.22;;;;;;;-145.68;100.00;63218.00;10455074;28;20311;-58
2022/04/30 09:28:00;;;;;;;9.30;5.78;;;;;;;-145.68;100.00;63218.00;10455114;28;20219;-58
2022/04/30 09:37:41;;;;;;;10.43;5.63;;;;;;;-145.68;100.00;63218.00;10453156;28;20203;-60
2022/04/30 09:40:23;;;;;;;12.23;6.25;;;;;;;-145.68;100.00;63218.00;10454290;28;20219;-58
2022/04/30 09:46:26;;;;;;;11.02;6.45;;;;;;;-145.68;100.00;63218.00;10452675;28;20212;-61
2022/04/30 09:58:43;;;;;;;13.75;6.63;;;;;;;-145.68;100.00;63218.00;10458480;28;20223;-57
2022/04/30 10:04:43;;;;;;;13.57;6.88;;;;;;;-145.68;100.00;63218.00;10457077;28;20247;-56
2022/04/30 10:10:46;;;;;;;13.82;6.45;;;;;;;-145.68;100.00;63218.00;10458611;28;20240;-60
2022/04/30 10:17:11;;;;;;;15.10;6.35;;;;;;;-145.68;100.00;63218.00;10447995;28;20235;-60
2022/04/30 10:23:15;;;;;;;15.27;8.00;;;;;;;-145.68;100.00;63218.00;10494591;28;20215;-58
2022/04/30 10:29:14;;;;;;;12.75;7.03;;;;;;;-145.68;100.00;63218.00;10495168;28;20563;-57
2022/04/30 10:35:13;;;;;;;13.65;6.97;;;;;;;-145.68;100.00;63218.00;10494876;28;20269;-59
2022/04/30 10:41:12;;;;;;;12.30;6.88;;;;;;;-145.68;100.00;63218.00;10477164;28;20301;-61
2022/04/30 10:47:14;;;;;;;11.18;6.90;;;;;;;-145.68;100.00;63218.00;10494987;28;20689;-58
2022/04/30 10:53:16;;;;;;;10.00;6.43;;;;;;;-145.68;100.00;63218.00;10477186;28;20198;-61
2022/04/30 10:59:22;;;;;;;8.95;6.80;;;;;;;-145.68;100.00;63218.00;10454808;28;20215;-58
2022/04/30 11:05:22;;;;;;;10.75;6.45;;;;;;;-145.68;100.00;63218.00;10473944;28;20273;-61
2022/04/30 11:11:22;;;;;;;10.55;5.90;;;;;;;-145.68;100.00;63218.00;10493791;28;20377;-60
2022/04/30 11:17:26;;;;;;;9.25;6.55;;;;;;;-145.68;100.00;63218.00;10475298;28;20705;-60
2022/04/30 11:23:25;;;;;;;7.28;5.78;;;;;;;-145.68;100.00;63218.00;10492430;28;20191;-61
2022/04/30 11:29:27;;;;;;;8.32;5.38;;;;;;;-145.68;100.00;63218.00;10492752;28;20260;-60
2022/04/30 11:35:26;;;;;;;8.38;5.70;;;;;;;-145.68;100.00;63218.00;10491892;28;20555;-58
2022/04/30 11:41:26;;;;;;;8.05;5.50;;;;;;;-145.68;100.00;63218.00;10474455;28;20262;-59
2022/04/30 11:47:24;;;;;;;11.27;6.50;;;;;;;-145.68;100.00;63218.00;10491735;28;20203;-62
2022/04/30 11:53:23;;;;;;;11.07;6.20;;;;;;;-145.68;100.00;63218.00;10492005;28;20225;-60
2022/04/30 11:59:32;;;;;;;7.38;5.85;;;;;;;-145.68;100.00;63218.00;10491776;28;20255;-58
2022/04/30 12:05:32;;;;;;;10.68;6.28;;;;;;;-145.68;100.00;63218.00;10491358;28;20207;-58
2022/04/30 12:11:39;;;;;;;12.55;6.10;;;;;;;-145.68;100.00;63218.00;10489779;28;20254;-59
2022/04/30 12:17:40;;;;;;;9.68;5.68;;;;;;;-145.68;100.00;63218.00;10493510;28;20262;-61
2022/04/30 12:30:00;;;;;;;8.38;5.93;;;;;;;-145.68;100.00;63218.00;10490478;28;20669;-61
2022/04/30 12:35:59;;;;;;;8.55;5.13;;;;;;;-145.68;100.00;63218.00;10489737;28;20226;-60
2022/04/30 12:41:58;;;;;;;6.35;4.75;;;;;;;-145.68;100.00;63218.00;10489876;28;20222;-61
2022/04/30 12:47:57;;;;;;;10.02;4.80;;;;;;;-145.68;100.00;63218.00;10490376;28;20353;-61
2022/04/30 12:53:57;;;;;;;7.32;4.47;;;;;;;-145.68;100.00;63218.00;10490511;28;20183;-61
2022/04/30 12:59:56;;;;;;;7.10;4.25;;;;;;;-145.68;100.00;63218.00;10489966;28;20215;-60
2022/04/30 13:05:55;;;;;;;6.68;4.40;;;;;;;-145.68;100.00;63218.00;10489934;28;20686;-55
2022/04/30 13:18:12;;;;;;;5.28;3.80;;;;;;;-145.68;100.00;63218.00;10489140;28;20820;-60
2022/04/30 13:24:11;;;;;;;4.97;4.20;;;;;;;-145.68;100.00;63218.00;10489242;28;20202;-58
2022/04/30 13:30:10;;;;;;;10.98;4.28;;;;;;;-145.68;100.00;63218.00;10545563;22;20247;-58
2022/04/30 13:36:09;;;;;;;6.53;4.10;;;;;;;-145.68;100.00;63218.00;10533502;28;20245;-57
2022/04/30 13:42:08;;;;;;;7.15;4.00;;;;;;;-145.68;100.00;63218.00;10492298;28;20242;-61
2022/04/30 13:48:07;;;;;;;5.47;3.13;;;;;;;-145.68;100.00;63218.00;10492708;28;20207;-62
2022/04/30 13:54:05;;;;;;;6.18;3.70;;;;;;;-145.68;100.00;63218.00;10492484;28;20196;-60
2022/04/30 14:00:06;;;;;;;7.50;3.88;;;;;;;-145.68;100.00;63218.00;10499495;28;20647;-63
2022/04/30 14:06:05;;;;;;;9.35;3.40;;;;;;;-145.68;100.00;63218.00;10499224;28;20199;-62
2022/04/30 14:12:04;;;;;;;5.70;3.42;;;;;;;-145.68;100.00;63218.00;10499202;28;20183;-64
2022/04/30 14:24:34;;;;;;;5.00;3.42;;;;;;;-145.68;100.00;63218.00;10464333;28;20195;-62
2022/04/30 14:30:34;;;;;;;5.35;4.00;;;;;;;-145.68;100.00;63218.00;10497900;28;20239;-62
2022/04/30 14:36:33;;;;;;;5.30;4.15;;;;;;;-145.68;100.00;63218.00;10497597;28;20240;-60
2022/04/30 14:42:32;;;;;;;5.40;3.40;;;;;;;-145.68;100.00;63218.00;10498195;28;20199;-63
2022/04/30 14:48:31;;;;;;;8.90;3.97;;;;;;;-145.68;100.00;63218.00;10497731;28;20208;-62
2022/04/30 14:54:30;;;;;;;4.05;2.88;;;;;;;-145.68;100.00;63218.00;10496364;28;20200;-62
2022/04/30 15:00:29;;;;;;;4.60;3.28;;;;;;;-145.68;100.00;63218.00;10497269;28;20257;-61
2022/04/30 15:06:28;;;;;;;9.50;3.15;;;;;;;-145.68;100.00;63218.00;10496730;28;20203;-61
2022/04/30 15:12:27;;;;;;;5.13;3.15;;;;;;;-145.68;100.00;63218.00;10496689;28;20668;-61
2022/04/30 15:18:27;;;;;;;8.55;3.72;;;;;;;-145.68;100.00;63218.00;10495914;28;20281;-60
2022/04/30 15:24:26;;;;;;;5.95;3.33;;;;;;;-145.68;100.00;63218.00;10486938;28;20218;-62
2022/04/30 15:30:26;;;;;;;5.47;2.92;;;;;;;-145.68;100.00;63218.00;10491932;28;20223;-63
2022/04/30 15:36:25;;;;;;;5.20;3.17;;;;;;;-145.68;100.00;63218.00;10486079;28;20214;-62
2022/04/30 15:42:25;;;;;;;3.92;2.78;;;;;;;-145.68;100.00;63218.00;10492604;28;20234;-63
2022/04/30 15:54:42;;;;;;;5.88;4.30;;;;;;;-145.68;100.00;63218.00;10453638;28;20188;-62
2022/04/30 16:00:40;;;;;;;6.35;3.20;;;;;;;-145.68;100.00;63218.00;10453322;28;20319;-62
2022/04/30 16:06:39;;;;;;;4.15;3.10;;;;;;;-145.68;100.00;63218.00;10453188;28;20198;-61
2022/04/30 16:12:38;;;;;;;5.18;2.97;;;;;;;-145.68;100.00;63218.00;10452694;28;20583;-62
2022/04/30 16:18:37;;;;;;;10.40;3.45;;;;;;;-145.68;100.00;63218.00;10451309;28;20231;-61
2022/04/30 16:24:36;;;;;;;8.25;3.08;;;;;;;-145.68;100.00;63218.00;10452433;28;20191;-61
2022/04/30 16:30:36;;;;;;;5.57;3.53;;;;;;;-145.68;100.00;63218.00;10452296;28;20664;-61
2022/04/30 16:36:35;;;;;;;5.40;3.00;;;;;;;-145.68;100.00;63218.00;10452559;28;20658;-60
2022/04/30 16:42:34;;;;;;;8.30;3.55;;;;;;;-145.68;100.00;63218.00;10452342;28;20272;-58
2022/04/30 16:48:32;;;;;;;4.00;2.95;;;;;;;-145.68;100.00;63218.00;10452033;28;20588;-59
2022/04/30 17:00:50;;;;;;;5.93;3.80;;;;;;;-145.68;100.00;63218.00;10451458;28;20216;-60
2022/04/30 17:06:49;;;;;;;6.70;3.25;;;;;;;-145.68;100.00;63218.00;10451743;28;20223;-60
2022/04/30 17:12:51;;;;;;;8.95;3.30;;;;;;;-145.68;100.00;63218.00;10451460;28;20184;-58
2022/04/30 17:18:50;;;;;;;7.55;3.88;;;;;;;-145.68;100.00;63218.00;10451347;28;20296;-58
2022/04/30 17:24:49;;;;;;;7.00;3.80;;;;;;;-145.68;100.00;63218.00;10449992;28;21026;-59
2022/04/30 17:43:28;;;;;;;10.63;4.72;;;;;;;-145.68;100.00;63218.00;10459096;28;20196;-59
2022/04/30 17:49:29;;;;;;;7.55;4.30;;;;;;;-145.68;100.00;63218.00;10458920;28;20294;-58
2022/04/30 17:55:31;;;;;;;7.80;4.13;;;;;;;-145.68;100.00;63218.00;10458803;28;20720;-58
2022/04/30 18:01:31;;;;;;;9.68;4.40;;;;;;;-145.68;100.00;63218.00;10458203;28;20698;-57
2022/04/30 18:07:30;;;;;;;10.30;4.80;;;;;;;-145.68;100.00;63218.00;10457786;28;20231;-57
2022/04/30 18:13:30;;;;;;;34.50;24.92;;;;;;;-145.68;100.00;63218.00;10457837;28;20188;-58
2022/04/30 18:19:29;;;;;;;26.38;16.83;;;;;;;-145.68;100.00;63218.00;10457382;28;20289;-58
2022/04/30 18:25:29;;;;;;;9.73;6.00;;;;;;;-145.68;100.00;63218.00;10457273;28;20568;-55
2022/04/30 18:31:27;;;;;;;13.00;5.95;;;;;;;-145.68;100.00;63218.00;10455933;28;20231;-54
2022/04/30 18:37:26;;;;;;;11.57;6.43;;;;;;;-145.68;100.00;63218.00;10456718;28;20245;-58
2022/04/30 18:43:25;;;;;;;13.50;8.27;;;;;;;-145.68;100.00;63218.00;10456062;28;20226;-54
2022/04/30 18:49:24;;;;;;;10.40;6.27;;;;;;;-145.68;100.00;63218.00;10456296;28;20580;-56
2022/04/30 19:01:42;;;;;;;12.20;6.93;;;;;;;-145.68;100.00;63218.00;10455954;28;20216;-61
2022/04/30 19:07:41;;;;;;;10.63;7.53;;;;;;;-145.68;100.00;63218.00;10454603;28;20257;-55
2022/04/30 19:13:40;;;;;;;14.33;8.63;;;;;;;-145.68;100.00;63218.00;10472667;28;20200;-60
2022/04/30 19:19:39;;;;;;;13.83;8.03;;;;;;;-145.68;100.00;63218.00;10495848;28;20238;-60
2022/04/30 19:25:38;;;;;;;14.53;7.57;;;;;;;-145.68;100.00;63218.00;10495590;28;20187;-60
2022/04/30 19:31:36;;;;;;;15.80;6.90;;;;;;;-145.68;100.00;63218.00;10586637;22;20269;-58
2022/04/30 19:37:36;;;;;;;11.13;6.70;;;;;;;-145.68;100.00;63218.00;10578732;28;20593;-52
2022/04/30 19:43:36;;;;;;;14.73;8.07;;;;;;;-145.68;100.00;63218.00;10579145;28;20737;-59
2022/04/30 19:49:35;;;;;;;13.87;8.20;;;;;;;-145.68;100.00;63218.00;10575072;28;20288;-58
2022/04/30 19:55:40;;;;;;;11.20;6.90;;;;;;;-145.68;100.00;63218.00;10578335;28;20243;-61
2022/04/30 20:01:39;;;;;;;10.90;7.10;;;;;;;-145.68;100.00;63218.00;10578103;28;20259;-60
2022/04/30 20:07:39;;;;;;;11.60;6.50;;;;;;;-145.68;100.00;63218.00;10578386;28;20588;-59
2022/04/30 20:19:55;;;;;;;9.13;6.23;;;;;;;-145.68;100.00;63218.00;10577921;28;20225;-54
2022/04/30 20:25:55;;;;;;;10.90;7.20;;;;;;;-145.68;100.00;63218.00;10577951;28;20190;-58
2022/04/30 20:38:11;;;;;;;10.27;5.97;;;;;;;-145.68;100.00;63218.00;10577488;28;20214;-53
2022/04/30 20:44:10;;;;;;;18.47;10.57;;;;;;;-145.68;100.00;63218.00;10577693;28;20201;-56
2022/04/30 20:50:10;;;;;;;14.87;6.83;;;;;;;-145.68;100.00;63218.00;10577436;28;20205;-56
2022/04/30 20:56:09;;;;;;;10.00;6.67;;;;;;;-145.68;100.00;63218.00;10577150;28;20238;-54
2022/04/30 21:02:10;;;;;;;10.47;6.97;;;;;;;-145.68;100.00;63218.00;10576832;28;20306;-56
2022/04/30 21:08:09;;;;;;;9.30;8.07;;;;;;;-145.68;100.00;63218.00;10585594;28;20201;-52
2022/04/30 21:14:09;;;;;;;11.63;7.70;;;;;;;-145.68;100.00;63218.00;10585968;28;20215;-57
2022/04/30 21:20:10;;;;;;;9.67;7.07;;;;;;;-145.68;100.00;63218.00;10585451;28;20222;-54
2022/04/30 21:26:08;;;;;;;11.93;7.57;;;;;;;-145.68;100.00;63218.00;10585189;28;20222;-54
2022/04/30 21:32:10;;;;;;;12.63;7.33;;;;;;;-145.68;100.00;63218.00;10585134;28;20438;-54
2022/04/30 21:38:10;;;;;;;13.83;7.90;;;;;;;-145.68;100.00;63218.00;10576602;28;20208;-52
2022/04/30 21:44:09;;;;;;;9.07;6.23;;;;;;;-145.68;100.00;63218.00;10584302;28;20229;-52
2022/04/30 21:50:08;;;;;;;13.67;8.03;;;;;;;-145.68;100.00;63218.00;10583868;28;20224;-52
2022/04/30 22:02:28;;;;;;;9.87;6.60;;;;;;;-145.68;100.00;63218.00;10583426;28;20305;-54
2022/04/30 22:08:27;;;;;;;10.83;7.00;;;;;;;-145.68;100.00;63218.00;10578033;28;20691;-52
2022/04/30 22:14:27;;;;;;;12.97;8.50;;;;;;;-145.68;100.00;63218.00;10583132;28;20193;-52
2022/04/30 22:20:27;;;;;;;10.57;6.87;;;;;;;-145.68;100.00;63218.00;10582697;28;20253;-52
2022/04/30 22:26:26;;;;;;;12.07;6.33;;;;;;;-145.68;100.00;63218.00;10581733;28;20197;-57
2022/04/30 22:32:25;;;;;;;15.77;6.00;;;;;;;-145.68;100.00;63218.00;10582323;28;20588;-58
2022/04/30 22:38:24;;;;;;;7.97;6.07;;;;;;;-145.68;100.00;63218.00;10582028;28;20217;-55
2022/04/30 22:44:23;;;;;;;9.83;5.83;;;;;;;-145.68;100.00;63218.00;10581802;28;20267;-56
2022/04/30 22:50:21;;;;;;;8.83;5.77;;;;;;;-145.68;100.00;63218.00;10581479;28;20201;-54
2022/04/30 22:56:21;;;;;;;11.37;6.17;;;;;;;-145.68;100.00;63218.00;10581540;28;20648;-54
2022/04/30 23:02:19;;;;;;;9.23;6.37;;;;;;;-145.68;100.00;63218.00;10581335;28;20221;-57
2022/04/30 23:08:18;;;;;;;14.33;8.00;;;;;;;-145.68;100.00;63218.00;10580754;28;20574;-55
2022/04/30 23:14:17;;;;;;;9.63;6.23;;;;;;;-145.68;100.00;63218.00;10580444;28;20205;-54
2022/04/30 23:20:16;;;;;;;12.20;6.73;;;;;;;-145.68;100.00;63218.00;10580189;28;20225;-54
2022/04/30 23:26:17;;;;;;;9.60;5.50;;;;;;;-145.68;100.00;63218.00;10579802;28;20185;-53
2022/04/30 23:32:16;;;;;;;9.17;6.50;;;;;;;-145.68;100.00;63218.00;10579795;28;20234;-55
2022/04/30 23:38:15;;;;;;;11.50;6.67;;;;;;;-145.68;100.00;63218.00;10579606;28;20206;-52
2022/04/30 23:44:14;;;;;;;12.73;5.93;;;;;;;-145.68;100.00;63218.00;10579585;28;20217;-52
2022/04/30 23:50:15;;;;;;;9.77;5.87;;;;;;;-145.68;100.00;63218.00;10579383;28;20214;-52
2022/04/30 23:56:14;;;;;;;9.97;7.40;;;;;;;-145.68;100.00;63218.00;10578841;28;20186;-55
